Mississippi Star — 9HA2441 — position and weather

sailwx.info

Track history (hours):
 
Tides and Currents Weather Stations Pressure Air Temp Water Temp Dewpoint Dewpoint Depression Visibility Wind Speed Wind Dir Waves Ship Positions

Mississippi Star

Last reported at 2017-Nov-16 05:59 UTC. Time now 2017-Nov-17 20:58 UTC.
Position N 60°39' E 004°21'.

Length 128 m; draft 8.5 m.

Type: Ship (hazmat cat D). MMSI: 248621000.

Date/timePositionNaut miles runAvg speedWind from/ knotsBaromVisibWave heightAir tempDewpointWater temp
2017-Nov-16 05:59N 60°39' E 004°21'3 7.1
2017-Nov-16 05:30N 60°42' E 004°24'4 8.0
2017-Nov-16 05:00N 60°43' E 004°31'5 9.8
2017-Nov-16 04:30N 60°44' E 004°41'3 6.5
2017-Nov-16 04:00N 60°47' E 004°45'4 8.0
2017-Nov-16 03:30N 60°51' E 004°48'612.0
2017-Nov-16 03:00N 60°50' E 005°00'1 2.6
2017-Nov-16 02:29N 60°49' E 005°02'0 0.0
2017-Nov-16 01:58N 60°49' E 005°02'0 0.0
2017-Nov-16 01:29N 60°49' E 005°02'0 0.0
2017-Nov-16 00:58N 60°49' E 005°02'0 0.0
2017-Nov-16 00:29N 60°49' E 005°02'0 0.0
2017-Nov-15 23:59N 60°49' E 005°02'0 0.0
2017-Nov-15 23:29N 60°49' E 005°02'0 0.0
2017-Nov-15 22:59N 60°49' E 005°02'0 0.0
2017-Nov-15 22:28N 60°49' E 005°02'0 0.0
2017-Nov-15 21:58N 60°49' E 005°02'0 0.0
2017-Nov-15 21:29N 60°49' E 005°02'0 0.0
2017-Nov-15 20:58N 60°49' E 005°02'0 0.0
2017-Nov-15 20:29N 60°49' E 005°02'0 0.0
2017-Nov-15 19:59N 60°49' E 005°02'0 0.0
2017-Nov-15 19:29N 60°49' E 005°02'0 0.0
2017-Nov-15 18:58N 60°49' E 005°02'0 0.0
2017-Nov-15 18:28N 60°49' E 005°02'0 0.0
2017-Nov-15 17:58N 60°49' E 005°02'0 0.0
2017-Nov-15 17:28N 60°49' E 005°02'0 0.0
2017-Nov-15 16:58N 60°49' E 005°02'0 0.0
2017-Nov-15 16:29N 60°49' E 005°02'0 0.0
2017-Nov-15 15:58N 60°49' E 005°02'0 0.0
2017-Nov-15 15:29N 60°49' E 005°02'0 0.0
2017-Nov-15 14:58N 60°49' E 005°02'0 0.0
2017-Nov-15 14:29N 60°49' E 005°02'0 0.0
2017-Nov-15 13:59N 60°49' E 005°02'0 0.0
2017-Nov-15 13:29N 60°49' E 005°02'0 0.0
2017-Nov-15 12:58N 60°49' E 005°02'0 0.0
2017-Nov-15 12:28N 60°49' E 005°02'0 0.0
2017-Nov-15 11:58N 60°49' E 005°02'0 0.0
2017-Nov-15 11:28N 60°49' E 005°02'0 0.0
2017-Nov-15 10:58N 60°49' E 005°02'0 0.0
2017-Nov-15 10:28N 60°49' E 005°02'0 0.0
2017-Nov-15 09:58N 60°49' E 005°02'0 0.0
2017-Nov-15 09:25N 60°49' E 005°02'0 0.0
2017-Nov-15 09:00N 60°49' E 005°02'0 0.3
2017-Nov-15 08:30N 60°49' E 005°03'5 9.2
2017-Nov-15 08:00N 60°51' E 004°54'510.3
2017-Nov-15 07:30N 60°48' E 004°44'4 8.5
2017-Nov-15 07:00N 60°44' E 004°42'611.4
2017-Nov-15 06:29N 60°42' E 004°31'5 9.6
2017-Nov-15 06:00N 60°38' E 004°27'511.0
2017-Nov-15 05:30N 60°32' E 004°28'610.9
2017-Nov-15 04:59N 60°27' E 004°28'510.8
2017-Nov-15 04:30N 60°21' E 004°28'11 4.9
2017-Nov-15 02:16N 60°32' E 004°23'468 9.7
2017-Nov-13 02:00N 52°44' E 004°07'3 5.5
2017-Nov-13 01:30N 52°41' E 004°07'3 6.4
2017-Nov-13 01:00N 52°38' E 004°06'3 6.5
2017-Nov-13 00:30N 52°35' E 004°07'3 6.1
2017-Nov-13 00:00N 52°32' E 004°09'3 7.0
2017-Nov-12 23:30N 52°31' E 004°14'4 8.4
2017-Nov-12 23:00N 52°30' E 004°21'4 8.9
2017-Nov-12 22:30N 52°29' E 004°28'4 8.0
2017-Nov-12 22:01N 52°28' E 004°35'1 2.2
2017-Nov-12 21:31N 52°28' E 004°37'3 5.1
2017-Nov-12 21:01N 52°27' E 004°41'4 7.7
2017-Nov-12 20:30N 52°25' E 004°46'1 1.7
2017-Nov-12 19:58N 52°25' E 004°46'0 0.0
2017-Nov-12 19:29N 52°25' E 004°46'0 0.0
2017-Nov-12 18:59N 52°25' E 004°46'0 0.0
2017-Nov-12 18:26N 52°25' E 004°46'0 0.0
2017-Nov-12 17:58N 52°25' E 004°46'0 0.0
2017-Nov-12 17:28N 52°25' E 004°46'0 0.0
2017-Nov-12 16:56N 52°25' E 004°46'0 0.0
2017-Nov-12 16:26N 52°25' E 004°46'0 0.0
2017-Nov-12 15:59N 52°25' E 004°46'0 0.0
2017-Nov-12 15:29N 52°25' E 004°46'0 0.0
2017-Nov-12 14:52N 52°25' E 004°46'0 0.0
2017-Nov-12 14:26N 52°25' E 004°46'0 0.0
2017-Nov-12 13:46N 52°25' E 004°46'0 0.0
2017-Nov-12 13:28N 52°25' E 004°46'0 0.0
2017-Nov-12 12:59N 52°25' E 004°46'0 0.0
2017-Nov-12 12:29N 52°25' E 004°46'0 0.0
2017-Nov-12 11:55N 52°25' E 004°46'0 0.0
2017-Nov-12 11:28N 52°25' E 004°46'0 0.0
2017-Nov-12 10:59N 52°25' E 004°46'0 0.0
2017-Nov-12 10:28N 52°25' E 004°46'0 0.0
2017-Nov-12 09:59N 52°25' E 004°46'0 0.0
2017-Nov-12 09:28N 52°25' E 004°46'0 0.0
2017-Nov-12 08:58N 52°25' E 004°46'0 0.0
2017-Nov-12 08:28N 52°25' E 004°46'0 0.0
2017-Nov-12 07:58N 52°25' E 004°46'0 0.0
2017-Nov-12 07:29N 52°25' E 004°46'0 0.0
2017-Nov-12 06:58N 52°25' E 004°46'0 0.0
2017-Nov-12 06:28N 52°25' E 004°46'0 0.0
2017-Nov-12 05:56N 52°25' E 004°46'0 0.0
2017-Nov-12 05:28N 52°25' E 004°46'0 0.0
2017-Nov-12 04:58N 52°25' E 004°46'0 0.0
2017-Nov-12 04:28N 52°25' E 004°46'0 0.0
2017-Nov-12 03:58N 52°25' E 004°46'0 0.0
2017-Nov-12 03:26N 52°25' E 004°46'0 0.0
2017-Nov-12 02:58N 52°25' E 004°46'0 0.0
2017-Nov-12 02:28N 52°25' E 004°46'0 0.0
2017-Nov-12 01:59N 52°25' E 004°46'0 0.0
2017-Nov-12 01:25N 52°25' E 004°46'0 0.0
2017-Nov-12 00:58N 52°25' E 004°46'0 0.0
2017-Nov-12 00:25N 52°25' E 004°46'0 0.0
2017-Nov-11 23:59N 52°25' E 004°46'0 0.3
2017-Nov-11 23:30N 52°25' E 004°46'3 6.3
2017-Nov-11 23:00N 52°26' E 004°42'4 7.6
2017-Nov-11 22:30N 52°28' E 004°37'1 1.2
2017-Nov-11 22:00N 52°28' E 004°36'4 7.4
2017-Nov-11 21:31N 52°28' E 004°29'5 9.1
2017-Nov-11 21:00N 52°29' E 004°22'611.9
2017-Nov-11 20:30N 52°29' E 004°12'5 9.9
2017-Nov-11 20:01N 52°33' E 004°07'611.0
2017-Nov-11 19:30N 52°38' E 004°03'164 7.9
2017-Nov-10 22:40N 54°04' E 007°58'1 7.2
2017-Nov-10 22:29N 54°03' E 007°60'4 7.6
2017-Nov-10 21:55N 54°01' E 008°06'3 8.5
2017-Nov-10 21:31N 54°01' E 008°12'5 9.9
2017-Nov-10 21:00N 53°60' E 008°20'612.9
2017-Nov-10 20:31N 53°58' E 008°31'611.6
2017-Nov-10 20:00N 53°56' E 008°40'611.6
2017-Nov-10 19:31N 53°51' E 008°46'611.5
2017-Nov-10 19:00N 53°51' E 008°55'510.5
2017-Nov-10 18:30N 53°52' E 009°04'3 6.3
2017-Nov-10 18:00N 53°54' E 009°09'0 0.0
2017-Nov-10 17:30N 53°54' E 009°09'1 2.6
2017-Nov-10 17:01N 53°55' E 009°10'0 0.0
2017-Nov-10 16:23N 53°55' E 009°10'0 0.0
2017-Nov-10 15:59N 53°55' E 009°10'0 0.0
2017-Nov-10 15:26N 53°55' E 009°10'0 0.0
2017-Nov-10 14:53N 53°55' E 009°10'0 0.0
2017-Nov-10 14:29N 53°55' E 009°10'0 0.0
2017-Nov-10 13:59N 53°55' E 009°10'0 0.0
2017-Nov-10 13:20N 53°55' E 009°10'0 0.0
2017-Nov-10 12:59N 53°55' E 009°10'0 0.0
2017-Nov-10 12:29N 53°55' E 009°10'0 0.0
2017-Nov-10 11:50N 53°55' E 009°10'0 0.0
2017-Nov-10 11:23N 53°55' E 009°10'0 0.0
2017-Nov-10 10:59N 53°55' E 009°10'0 0.0
2017-Nov-10 10:23N 53°55' E 009°10'0 0.0
2017-Nov-10 09:59N 53°55' E 009°10'0 0.0
2017-Nov-10 09:26N 53°55' E 009°10'0 0.0
2017-Nov-10 08:59N 53°55' E 009°10'0 0.0
2017-Nov-10 08:29N 53°55' E 009°10'0 0.0
2017-Nov-10 07:59N 53°55' E 009°10'0 0.0
2017-Nov-10 07:29N 53°55' E 009°10'0 0.0
2017-Nov-10 06:59N 53°55' E 009°10'0 0.0
2017-Nov-10 06:29N 53°55' E 009°10'0 0.0
2017-Nov-10 05:59N 53°55' E 009°10'0 0.0
2017-Nov-10 05:20N 53°55' E 009°10'0 0.0
2017-Nov-10 04:59N 53°55' E 009°10'0 0.0
2017-Nov-10 04:29N 53°55' E 009°10'0 0.0
2017-Nov-10 03:50N 53°55' E 009°10'0 0.0
2017-Nov-10 03:29N 53°55' E 009°10'0 0.0
2017-Nov-10 02:56N 53°55' E 009°10'0 0.0
2017-Nov-10 02:26N 53°55' E 009°10'0 0.0
2017-Nov-10 01:56N 53°55' E 009°10'0 0.0
2017-Nov-10 01:26N 53°55' E 009°10'0 0.0
2017-Nov-10 00:59N 53°55' E 009°10'0 0.0
2017-Nov-10 00:29N 53°55' E 009°10'0 0.0
2017-Nov-09 23:59N 53°55' E 009°10'0 0.0
2017-Nov-09 23:23N 53°55' E 009°10'0 0.0
2017-Nov-09 22:59N 53°55' E 009°10'0 0.0
2017-Nov-09 22:26N 53°55' E 009°10'0 0.0
2017-Nov-09 21:59N 53°55' E 009°10'0 0.0
2017-Nov-09 21:26N 53°55' E 009°10'0 0.0
2017-Nov-09 20:59N 53°55' E 009°10'0 0.0
2017-Nov-09 20:29N 53°55' E 009°10'0 0.0
2017-Nov-09 19:56N 53°55' E 009°10'0 0.0
2017-Nov-09 19:29N 53°55' E 009°10'0 0.0
2017-Nov-09 18:56N 53°55' E 009°10'0 0.0
2017-Nov-09 18:29N 53°55' E 009°10'0 0.0
2017-Nov-09 17:59N 53°55' E 009°10'0 0.0
2017-Nov-09 17:23N 53°55' E 009°10'0 0.0
2017-Nov-09 16:59N 53°55' E 009°10'0 0.0
2017-Nov-09 16:26N 53°55' E 009°10'0 0.0
2017-Nov-09 15:59N 53°55' E 009°10'0 0.0
2017-Nov-09 15:29N 53°55' E 009°10'0 0.0
2017-Nov-09 14:59N 53°55' E 009°10'0 0.0
2017-Nov-09 14:26N 53°55' E 009°10'0 0.0
2017-Nov-09 13:59N 53°55' E 009°10'0 0.0
2017-Nov-09 13:29N 53°55' E 009°10'0 0.0
2017-Nov-09 12:59N 53°55' E 009°10'0 0.3
2017-Nov-09 12:30N 53°54' E 009°10'1 2.3
2017-Nov-09 12:00N 53°54' E 009°09'0 0.0
2017-Nov-09 11:30N 53°54' E 009°09'1 2.7
2017-Nov-09 11:00N 53°53' E 009°07'0 0.4
2017-Nov-09 10:30N 53°53' E 009°06'1 2.9
2017-Nov-09 10:00N 53°53' E 009°04'3 5.8
2017-Nov-09 09:30N 53°51' E 008°60'5 8.9
2017-Nov-09 09:00N 53°50' E 008°52'4 8.2
2017-Nov-09 08:30N 53°51' E 008°45'4 7.8
2017-Nov-09 08:00N 53°54' E 008°41'4 7.7
2017-Nov-09 07:30N 53°57' E 008°37'5 9.9
2017-Nov-09 07:00N 53°58' E 008°29'5 9.9
2017-Nov-09 06:30N 53°59' E 008°21'610.8
2017-Nov-09 06:00N 53°60' E 008°11'4 7.7
2017-Nov-09 05:30N 54°01' E 008°05'2 3.0
2017-Nov-09 04:51N 54°02' E 008°07'0 0.0
2017-Nov-09 04:30N 54°02' E 008°07'0 0.0
2017-Nov-09 03:54N 54°02' E 008°07'0 0.1
2017-Nov-09 03:24N 54°02' E 008°07'0 0.1
2017-Nov-09 02:54N 54°02' E 008°07'0 0.1
2017-Nov-09 02:24N 54°02' E 008°07'0 0.1
2017-Nov-09 02:00N 54°02' E 008°07'0 0.0
2017-Nov-09 01:30N 54°02' E 008°07'0 0.0
2017-Nov-09 00:57N 54°02' E 008°07'0 0.0
2017-Nov-09 00:30N 54°02' E 008°07'0 0.0
2017-Nov-08 23:54N 54°02' E 008°07'0 0.0
2017-Nov-08 23:27N 54°02' E 008°07'0 0.1
2017-Nov-08 23:00N 54°02' E 008°07'0 0.1
2017-Nov-08 22:27N 54°02' E 008°07'0 0.1
2017-Nov-08 22:00N 54°02' E 008°07'0 0.0
2017-Nov-08 21:27N 54°02' E 008°07'0 0.0
2017-Nov-08 21:00N 54°02' E 008°07'0 0.0
2017-Nov-08 20:30N 54°02' E 008°07'0 0.0
2017-Nov-08 20:00N 54°02' E 008°07'0 0.0
2017-Nov-08 19:30N 54°02' E 008°07'0 0.0
2017-Nov-08 19:00N 54°02' E 008°07'0 0.0
2017-Nov-08 18:24N 54°02' E 008°07'0 0.0
2017-Nov-08 17:57N 54°02' E 008°07'0 0.0
2017-Nov-08 17:30N 54°02' E 008°07'0 0.0
2017-Nov-08 16:57N 54°02' E 008°07'0 0.0
2017-Nov-08 16:30N 54°02' E 008°07'0 0.0
2017-Nov-08 16:00N 54°02' E 008°07'0 0.0
2017-Nov-08 15:24N 54°02' E 008°07'0 0.0
2017-Nov-08 15:00N 54°02' E 008°07'0 0.0
2017-Nov-08 14:24N 54°02' E 008°07'0 0.2
2017-Nov-08 13:57N 54°02' E 008°07'2 4.4
2017-Nov-08 13:30N 54°03' E 008°04'611.1
2017-Nov-08 13:00N 54°03' E 007°54'611.2
2017-Nov-08 12:30N 54°06' E 007°46'611.5
2017-Nov-08 12:00N 54°08' E 007°37'611.3
2017-Nov-08 11:30N 54°09' E 007°28'94 9.6
2017-Nov-08 01:46N 53°44' E 004°55'310.1
2017-Nov-08 01:28N 53°41' E 004°53'510.0
2017-Nov-08 00:59N 53°37' E 004°50'610.0
2017-Nov-08 00:24N 53°31' E 004°48'4 9.0
2017-Nov-07 23:59N 53°28' E 004°44'510.2
2017-Nov-07 23:29N 53°23' E 004°41'510.2
2017-Nov-07 23:00N 53°18' E 004°38'510.4
2017-Nov-07 22:29N 53°14' E 004°34'510.3
2017-Nov-07 21:58N 53°09' E 004°29'510.3
2017-Nov-07 21:30N 53°05' E 004°25'510.5
2017-Nov-07 20:59N 53°00' E 004°21'510.7
2017-Nov-07 20:30N 52°55' E 004°18'510.8
2017-Nov-07 20:00N 52°51' E 004°14'611.2
2017-Nov-07 19:29N 52°46' E 004°08'511.2
2017-Nov-07 19:00N 52°41' E 004°06'611.4
2017-Nov-07 18:30N 52°35' E 004°06'510.5
2017-Nov-07 18:00N 52°31' E 004°12'510.3
2017-Nov-07 17:30N 52°30' E 004°21'510.1
2017-Nov-07 17:00N 52°29' E 004°29'5 9.4
2017-Nov-07 16:30N 52°28' E 004°36'0 0.6
2017-Nov-07 16:00N 52°28' E 004°37'2 4.2
2017-Nov-07 15:30N 52°28' E 004°40'4 7.0
2017-Nov-07 15:01N 52°26' E 004°45'1 0.8
2017-Nov-07 14:00N 52°25' E 004°45'0 0.0
2017-Nov-07 13:24N 52°25' E 004°45'0 0.0
2017-Nov-07 12:54N 52°25' E 004°45'0 0.0
2017-Nov-07 12:30N 52°25' E 004°45'0 0.0
2017-Nov-07 10:57N 52°25' E 004°45'0 0.0
2017-Nov-07 10:21N 52°25' E 004°45'0 0.0
2017-Nov-07 09:36N 52°25' E 004°45'0 0.0
2017-Nov-07 09:24N 52°25' E 004°45'0 0.0
2017-Nov-07 08:57N 52°25' E 004°45'0 0.0
2017-Nov-07 08:30N 52°25' E 004°45'0 0.0
2017-Nov-07 07:51N 52°25' E 004°45'0 0.0
2017-Nov-07 07:27N 52°25' E 004°45'0 0.0
2017-Nov-07 06:51N 52°25' E 004°45'0 0.0
2017-Nov-07 06:00N 52°25' E 004°45'0 0.0
2017-Nov-07 05:30N 52°25' E 004°45'0 0.0
2017-Nov-07 05:00N 52°25' E 004°45'0 0.0
2017-Nov-07 04:27N 52°25' E 004°45'0 0.0
2017-Nov-07 03:54N 52°25' E 004°45'0 0.0
2017-Nov-07 03:30N 52°25' E 004°45'0 0.0
2017-Nov-07 03:00N 52°25' E 004°45'0 0.0
2017-Nov-07 02:30N 52°25' E 004°45'0 0.0
2017-Nov-07 01:48N 52°25' E 004°45'0 0.0
2017-Nov-07 01:30N 52°25' E 004°45'0 0.0
2017-Nov-07 01:00N 52°25' E 004°45'0 0.0
2017-Nov-07 00:27N 52°25' E 004°45'0 0.0
2017-Nov-07 00:00N 52°25' E 004°45'0 0.0
2017-Nov-06 23:30N 52°25' E 004°45'0 0.0
2017-Nov-06 22:54N 52°25' E 004°45'0 0.0
2017-Nov-06 22:30N 52°25' E 004°45'0 0.0
2017-Nov-06 21:45N 52°25' E 004°45'0 0.0
2017-Nov-06 21:27N 52°25' E 004°45'0 0.0
2017-Nov-06 21:00N 52°25' E 004°45'0 0.0
2017-Nov-06 20:30N 52°25' E 004°45'  
Track history (hours):
 
Tides and Currents Weather Stations Pressure Air Temp Water Temp Dewpoint Dewpoint Depression Visibility Wind Speed Wind Dir Waves Ship Positions

Mississippi Star

Last reported at 2017-Nov-16 05:59 UTC. Time now 2017-Nov-17 20:58 UTC.
Position N 60°39' E 004°21'.

Length 128 m; draft 8.5 m.

Type: Ship (hazmat cat D). MMSI: 248621000.

Date/timePositionNaut miles runAvg speedWind from/ knotsBaromVisibWave heightAir tempDewpointWater temp
2017-Nov-16 05:59N 60°39' E 004°21'3 7.1
2017-Nov-16 05:30N 60°42' E 004°24'4 8.0
2017-Nov-16 05:00N 60°43' E 004°31'5 9.8
2017-Nov-16 04:30N 60°44' E 004°41'3 6.5
2017-Nov-16 04:00N 60°47' E 004°45'4 8.0
2017-Nov-16 03:30N 60°51' E 004°48'612.0
2017-Nov-16 03:00N 60°50' E 005°00'1 2.6
2017-Nov-16 02:29N 60°49' E 005°02'0 0.0
2017-Nov-16 01:58N 60°49' E 005°02'0 0.0
2017-Nov-16 01:29N 60°49' E 005°02'0 0.0
2017-Nov-16 00:58N 60°49' E 005°02'0 0.0
2017-Nov-16 00:29N 60°49' E 005°02'0 0.0
2017-Nov-15 23:59N 60°49' E 005°02'0 0.0
2017-Nov-15 23:29N 60°49' E 005°02'0 0.0
2017-Nov-15 22:59N 60°49' E 005°02'0 0.0
2017-Nov-15 22:28N 60°49' E 005°02'0 0.0
2017-Nov-15 21:58N 60°49' E 005°02'0 0.0
2017-Nov-15 21:29N 60°49' E 005°02'0 0.0
2017-Nov-15 20:58N 60°49' E 005°02'0 0.0
2017-Nov-15 20:29N 60°49' E 005°02'0 0.0
2017-Nov-15 19:59N 60°49' E 005°02'0 0.0
2017-Nov-15 19:29N 60°49' E 005°02'0 0.0
2017-Nov-15 18:58N 60°49' E 005°02'0 0.0
2017-Nov-15 18:28N 60°49' E 005°02'0 0.0
2017-Nov-15 17:58N 60°49' E 005°02'0 0.0
2017-Nov-15 17:28N 60°49' E 005°02'0 0.0
2017-Nov-15 16:58N 60°49' E 005°02'0 0.0
2017-Nov-15 16:29N 60°49' E 005°02'0 0.0
2017-Nov-15 15:58N 60°49' E 005°02'0 0.0
2017-Nov-15 15:29N 60°49' E 005°02'0 0.0
2017-Nov-15 14:58N 60°49' E 005°02'0 0.0
2017-Nov-15 14:29N 60°49' E 005°02'0 0.0
2017-Nov-15 13:59N 60°49' E 005°02'0 0.0
2017-Nov-15 13:29N 60°49' E 005°02'0 0.0
2017-Nov-15 12:58N 60°49' E 005°02'0 0.0
2017-Nov-15 12:28N 60°49' E 005°02'0 0.0
2017-Nov-15 11:58N 60°49' E 005°02'0 0.0
2017-Nov-15 11:28N 60°49' E 005°02'0 0.0
2017-Nov-15 10:58N 60°49' E 005°02'0 0.0
2017-Nov-15 10:28N 60°49' E 005°02'0 0.0
2017-Nov-15 09:58N 60°49' E 005°02'0 0.0
2017-Nov-15 09:25N 60°49' E 005°02'0 0.0
2017-Nov-15 09:00N 60°49' E 005°02'0 0.3
2017-Nov-15 08:30N 60°49' E 005°03'5 9.2
2017-Nov-15 08:00N 60°51' E 004°54'510.3
2017-Nov-15 07:30N 60°48' E 004°44'4 8.5
2017-Nov-15 07:00N 60°44' E 004°42'611.4
2017-Nov-15 06:29N 60°42' E 004°31'5 9.6
2017-Nov-15 06:00N 60°38' E 004°27'511.0
2017-Nov-15 05:30N 60°32' E 004°28'610.9
2017-Nov-15 04:59N 60°27' E 004°28'510.8
2017-Nov-15 04:30N 60°21' E 004°28'11 4.9
2017-Nov-15 02:16N 60°32' E 004°23'468 9.7
2017-Nov-13 02:00N 52°44' E 004°07'3 5.5
2017-Nov-13 01:30N 52°41' E 004°07'3 6.4
2017-Nov-13 01:00N 52°38' E 004°06'3 6.5
2017-Nov-13 00:30N 52°35' E 004°07'3 6.1
2017-Nov-13 00:00N 52°32' E 004°09'3 7.0
2017-Nov-12 23:30N 52°31' E 004°14'4 8.4
2017-Nov-12 23:00N 52°30' E 004°21'4 8.9
2017-Nov-12 22:30N 52°29' E 004°28'4 8.0
2017-Nov-12 22:01N 52°28' E 004°35'1 2.2
2017-Nov-12 21:31N 52°28' E 004°37'3 5.1
2017-Nov-12 21:01N 52°27' E 004°41'4 7.7
2017-Nov-12 20:30N 52°25' E 004°46'1 1.7
2017-Nov-12 19:58N 52°25' E 004°46'0 0.0
2017-Nov-12 19:29N 52°25' E 004°46'0 0.0
2017-Nov-12 18:59N 52°25' E 004°46'0 0.0
2017-Nov-12 18:26N 52°25' E 004°46'0 0.0
2017-Nov-12 17:58N 52°25' E 004°46'0 0.0
2017-Nov-12 17:28N 52°25' E 004°46'0 0.0
2017-Nov-12 16:56N 52°25' E 004°46'0 0.0
2017-Nov-12 16:26N 52°25' E 004°46'0 0.0
2017-Nov-12 15:59N 52°25' E 004°46'0 0.0
2017-Nov-12 15:29N 52°25' E 004°46'0 0.0
2017-Nov-12 14:52N 52°25' E 004°46'0 0.0
2017-Nov-12 14:26N 52°25' E 004°46'0 0.0
2017-Nov-12 13:46N 52°25' E 004°46'0 0.0
2017-Nov-12 13:28N 52°25' E 004°46'0 0.0
2017-Nov-12 12:59N 52°25' E 004°46'0 0.0
2017-Nov-12 12:29N 52°25' E 004°46'0 0.0
2017-Nov-12 11:55N 52°25' E 004°46'0 0.0
2017-Nov-12 11:28N 52°25' E 004°46'0 0.0
2017-Nov-12 10:59N 52°25' E 004°46'0 0.0
2017-Nov-12 10:28N 52°25' E 004°46'0 0.0
2017-Nov-12 09:59N 52°25' E 004°46'0 0.0
2017-Nov-12 09:28N 52°25' E 004°46'0 0.0
2017-Nov-12 08:58N 52°25' E 004°46'0 0.0
2017-Nov-12 08:28N 52°25' E 004°46'0 0.0
2017-Nov-12 07:58N 52°25' E 004°46'0 0.0
2017-Nov-12 07:29N 52°25' E 004°46'0 0.0
2017-Nov-12 06:58N 52°25' E 004°46'0 0.0
2017-Nov-12 06:28N 52°25' E 004°46'0 0.0
2017-Nov-12 05:56N 52°25' E 004°46'0 0.0
2017-Nov-12 05:28N 52°25' E 004°46'0 0.0
2017-Nov-12 04:58N 52°25' E 004°46'0 0.0
2017-Nov-12 04:28N 52°25' E 004°46'0 0.0
2017-Nov-12 03:58N 52°25' E 004°46'0 0.0
2017-Nov-12 03:26N 52°25' E 004°46'0 0.0
2017-Nov-12 02:58N 52°25' E 004°46'0 0.0
2017-Nov-12 02:28N 52°25' E 004°46'0 0.0
2017-Nov-12 01:59N 52°25' E 004°46'0 0.0
2017-Nov-12 01:25N 52°25' E 004°46'0 0.0
2017-Nov-12 00:58N 52°25' E 004°46'0 0.0
2017-Nov-12 00:25N 52°25' E 004°46'0 0.0
2017-Nov-11 23:59N 52°25' E 004°46'0 0.3
2017-Nov-11 23:30N 52°25' E 004°46'3 6.3
2017-Nov-11 23:00N 52°26' E 004°42'4 7.6
2017-Nov-11 22:30N 52°28' E 004°37'1 1.2
2017-Nov-11 22:00N 52°28' E 004°36'4 7.4
2017-Nov-11 21:31N 52°28' E 004°29'5 9.1
2017-Nov-11 21:00N 52°29' E 004°22'611.9
2017-Nov-11 20:30N 52°29' E 004°12'5 9.9
2017-Nov-11 20:01N 52°33' E 004°07'611.0
2017-Nov-11 19:30N 52°38' E 004°03'164 7.9
2017-Nov-10 22:40N 54°04' E 007°58'1 7.2
2017-Nov-10 22:29N 54°03' E 007°60'4 7.6
2017-Nov-10 21:55N 54°01' E 008°06'3 8.5
2017-Nov-10 21:31N 54°01' E 008°12'5 9.9
2017-Nov-10 21:00N 53°60' E 008°20'612.9
2017-Nov-10 20:31N 53°58' E 008°31'611.6
2017-Nov-10 20:00N 53°56' E 008°40'611.6
2017-Nov-10 19:31N 53°51' E 008°46'611.5
2017-Nov-10 19:00N 53°51' E 008°55'510.5
2017-Nov-10 18:30N 53°52' E 009°04'3 6.3
2017-Nov-10 18:00N 53°54' E 009°09'0 0.0
2017-Nov-10 17:30N 53°54' E 009°09'1 2.6
2017-Nov-10 17:01N 53°55' E 009°10'0 0.0
2017-Nov-10 16:23N 53°55' E 009°10'0 0.0
2017-Nov-10 15:59N 53°55' E 009°10'0 0.0
2017-Nov-10 15:26N 53°55' E 009°10'0 0.0
2017-Nov-10 14:53N 53°55' E 009°10'0 0.0
2017-Nov-10 14:29N 53°55' E 009°10'0 0.0
2017-Nov-10 13:59N 53°55' E 009°10'0 0.0
2017-Nov-10 13:20N 53°55' E 009°10'0 0.0
2017-Nov-10 12:59N 53°55' E 009°10'0 0.0
2017-Nov-10 12:29N 53°55' E 009°10'0 0.0
2017-Nov-10 11:50N 53°55' E 009°10'0 0.0
2017-Nov-10 11:23N 53°55' E 009°10'0 0.0
2017-Nov-10 10:59N 53°55' E 009°10'0 0.0
2017-Nov-10 10:23N 53°55' E 009°10'0 0.0
2017-Nov-10 09:59N 53°55' E 009°10'0 0.0
2017-Nov-10 09:26N 53°55' E 009°10'0 0.0
2017-Nov-10 08:59N 53°55' E 009°10'0 0.0
2017-Nov-10 08:29N 53°55' E 009°10'0 0.0
2017-Nov-10 07:59N 53°55' E 009°10'0 0.0
2017-Nov-10 07:29N 53°55' E 009°10'0 0.0
2017-Nov-10 06:59N 53°55' E 009°10'0 0.0
2017-Nov-10 06:29N 53°55' E 009°10'0 0.0
2017-Nov-10 05:59N 53°55' E 009°10'0 0.0
2017-Nov-10 05:20N 53°55' E 009°10'0 0.0
2017-Nov-10 04:59N 53°55' E 009°10'0 0.0
2017-Nov-10 04:29N 53°55' E 009°10'0 0.0
2017-Nov-10 03:50N 53°55' E 009°10'0 0.0
2017-Nov-10 03:29N 53°55' E 009°10'0 0.0
2017-Nov-10 02:56N 53°55' E 009°10'0 0.0
2017-Nov-10 02:26N 53°55' E 009°10'0 0.0
2017-Nov-10 01:56N 53°55' E 009°10'0 0.0
2017-Nov-10 01:26N 53°55' E 009°10'0 0.0
2017-Nov-10 00:59N 53°55' E 009°10'0 0.0
2017-Nov-10 00:29N 53°55' E 009°10'0 0.0
2017-Nov-09 23:59N 53°55' E 009°10'0 0.0
2017-Nov-09 23:23N 53°55' E 009°10'0 0.0
2017-Nov-09 22:59N 53°55' E 009°10'0 0.0
2017-Nov-09 22:26N 53°55' E 009°10'0 0.0
2017-Nov-09 21:59N 53°55' E 009°10'0 0.0
2017-Nov-09 21:26N 53°55' E 009°10'0 0.0
2017-Nov-09 20:59N 53°55' E 009°10'0 0.0
2017-Nov-09 20:29N 53°55' E 009°10'0 0.0
2017-Nov-09 19:56N 53°55' E 009°10'0 0.0
2017-Nov-09 19:29N 53°55' E 009°10'0 0.0
2017-Nov-09 18:56N 53°55' E 009°10'0 0.0
2017-Nov-09 18:29N 53°55' E 009°10'0 0.0
2017-Nov-09 17:59N 53°55' E 009°10'0 0.0
2017-Nov-09 17:23N 53°55' E 009°10'0 0.0
2017-Nov-09 16:59N 53°55' E 009°10'0 0.0
2017-Nov-09 16:26N 53°55' E 009°10'0 0.0
2017-Nov-09 15:59N 53°55' E 009°10'0 0.0
2017-Nov-09 15:29N 53°55' E 009°10'0 0.0
2017-Nov-09 14:59N 53°55' E 009°10'0 0.0
2017-Nov-09 14:26N 53°55' E 009°10'0 0.0
2017-Nov-09 13:59N 53°55' E 009°10'0 0.0
2017-Nov-09 13:29N 53°55' E 009°10'0 0.0
2017-Nov-09 12:59N 53°55' E 009°10'0 0.3
2017-Nov-09 12:30N 53°54' E 009°10'1 2.3
2017-Nov-09 12:00N 53°54' E 009°09'0 0.0
2017-Nov-09 11:30N 53°54' E 009°09'1 2.7
2017-Nov-09 11:00N 53°53' E 009°07'0 0.4
2017-Nov-09 10:30N 53°53' E 009°06'1 2.9
2017-Nov-09 10:00N 53°53' E 009°04'3 5.8
2017-Nov-09 09:30N 53°51' E 008°60'5 8.9
2017-Nov-09 09:00N 53°50' E 008°52'4 8.2
2017-Nov-09 08:30N 53°51' E 008°45'4 7.8
2017-Nov-09 08:00N 53°54' E 008°41'4 7.7
2017-Nov-09 07:30N 53°57' E 008°37'5 9.9
2017-Nov-09 07:00N 53°58' E 008°29'5 9.9
2017-Nov-09 06:30N 53°59' E 008°21'610.8
2017-Nov-09 06:00N 53°60' E 008°11'4 7.7
2017-Nov-09 05:30N 54°01' E 008°05'2 3.0
2017-Nov-09 04:51N 54°02' E 008°07'0 0.0
2017-Nov-09 04:30N 54°02' E 008°07'0 0.0
2017-Nov-09 03:54N 54°02' E 008°07'0 0.1
2017-Nov-09 03:24N 54°02' E 008°07'0 0.1
2017-Nov-09 02:54N 54°02' E 008°07'0 0.1
2017-Nov-09 02:24N 54°02' E 008°07'0 0.1
2017-Nov-09 02:00N 54°02' E 008°07'0 0.0
2017-Nov-09 01:30N 54°02' E 008°07'0 0.0
2017-Nov-09 00:57N 54°02' E 008°07'0 0.0
2017-Nov-09 00:30N 54°02' E 008°07'0 0.0
2017-Nov-08 23:54N 54°02' E 008°07'0 0.0
2017-Nov-08 23:27N 54°02' E 008°07'0 0.1
2017-Nov-08 23:00N 54°02' E 008°07'0 0.1
2017-Nov-08 22:27N 54°02' E 008°07'0 0.1
2017-Nov-08 22:00N 54°02' E 008°07'0 0.0
2017-Nov-08 21:27N 54°02' E 008°07'0 0.0
2017-Nov-08 21:00N 54°02' E 008°07'0 0.0
2017-Nov-08 20:30N 54°02' E 008°07'0 0.0
2017-Nov-08 20:00N 54°02' E 008°07'0 0.0
2017-Nov-08 19:30N 54°02' E 008°07'0 0.0
2017-Nov-08 19:00N 54°02' E 008°07'0 0.0
2017-Nov-08 18:24N 54°02' E 008°07'0 0.0
2017-Nov-08 17:57N 54°02' E 008°07'0 0.0
2017-Nov-08 17:30N 54°02' E 008°07'0 0.0
2017-Nov-08 16:57N 54°02' E 008°07'0 0.0
2017-Nov-08 16:30N 54°02' E 008°07'0 0.0
2017-Nov-08 16:00N 54°02' E 008°07'0 0.0
2017-Nov-08 15:24N 54°02' E 008°07'0 0.0
2017-Nov-08 15:00N 54°02' E 008°07'0 0.0
2017-Nov-08 14:24N 54°02' E 008°07'0 0.2
2017-Nov-08 13:57N 54°02' E 008°07'2 4.4
2017-Nov-08 13:30N 54°03' E 008°04'611.1
2017-Nov-08 13:00N 54°03' E 007°54'611.2
2017-Nov-08 12:30N 54°06' E 007°46'611.5
2017-Nov-08 12:00N 54°08' E 007°37'611.3
2017-Nov-08 11:30N 54°09' E 007°28'94 9.6
2017-Nov-08 01:46N 53°44' E 004°55'310.1
2017-Nov-08 01:28N 53°41' E 004°53'510.0
2017-Nov-08 00:59N 53°37' E 004°50'610.0
2017-Nov-08 00:24N 53°31' E 004°48'4 9.0
2017-Nov-07 23:59N 53°28' E 004°44'510.2
2017-Nov-07 23:29N 53°23' E 004°41'510.2
2017-Nov-07 23:00N 53°18' E 004°38'510.4
2017-Nov-07 22:29N 53°14' E 004°34'510.3
2017-Nov-07 21:58N 53°09' E 004°29'510.3
2017-Nov-07 21:30N 53°05' E 004°25'510.5
2017-Nov-07 20:59N 53°00' E 004°21'510.7
2017-Nov-07 20:30N 52°55' E 004°18'510.8
2017-Nov-07 20:00N 52°51' E 004°14'611.2
2017-Nov-07 19:29N 52°46' E 004°08'511.2
2017-Nov-07 19:00N 52°41' E 004°06'611.4
2017-Nov-07 18:30N 52°35' E 004°06'510.5
2017-Nov-07 18:00N 52°31' E 004°12'510.3
2017-Nov-07 17:30N 52°30' E 004°21'510.1
2017-Nov-07 17:00N 52°29' E 004°29'5 9.4
2017-Nov-07 16:30N 52°28' E 004°36'0 0.6
2017-Nov-07 16:00N 52°28' E 004°37'2 4.2
2017-Nov-07 15:30N 52°28' E 004°40'4 7.0
2017-Nov-07 15:01N 52°26' E 004°45'1 0.8
2017-Nov-07 14:00N 52°25' E 004°45'0 0.0
2017-Nov-07 13:24N 52°25' E 004°45'0 0.0
2017-Nov-07 12:54N 52°25' E 004°45'0 0.0
2017-Nov-07 12:30N 52°25' E 004°45'0 0.0
2017-Nov-07 10:57N 52°25' E 004°45'0 0.0
2017-Nov-07 10:21N 52°25' E 004°45'0 0.0
2017-Nov-07 09:36N 52°25' E 004°45'0 0.0
2017-Nov-07 09:24N 52°25' E 004°45'0 0.0
2017-Nov-07 08:57N 52°25' E 004°45'0 0.0
2017-Nov-07 08:30N 52°25' E 004°45'0 0.0
2017-Nov-07 07:51N 52°25' E 004°45'0 0.0
2017-Nov-07 07:27N 52°25' E 004°45'0 0.0
2017-Nov-07 06:51N 52°25' E 004°45'0 0.0
2017-Nov-07 06:00N 52°25' E 004°45'0 0.0
2017-Nov-07 05:30N 52°25' E 004°45'0 0.0
2017-Nov-07 05:00N 52°25' E 004°45'0 0.0
2017-Nov-07 04:27N 52°25' E 004°45'0 0.0
2017-Nov-07 03:54N 52°25' E 004°45'0 0.0
2017-Nov-07 03:30N 52°25' E 004°45'0 0.0
2017-Nov-07 03:00N 52°25' E 004°45'0 0.0
2017-Nov-07 02:30N 52°25' E 004°45'0 0.0
2017-Nov-07 01:48N 52°25' E 004°45'0 0.0
2017-Nov-07 01:30N 52°25' E 004°45'0 0.0
2017-Nov-07 01:00N 52°25' E 004°45'0 0.0
2017-Nov-07 00:27N 52°25' E 004°45'0 0.0
2017-Nov-07 00:00N 52°25' E 004°45'0 0.0
2017-Nov-06 23:30N 52°25' E 004°45'0 0.0
2017-Nov-06 22:54N 52°25' E 004°45'0 0.0
2017-Nov-06 22:30N 52°25' E 004°45'0 0.0
2017-Nov-06 21:45N 52°25' E 004°45'0 0.0
2017-Nov-06 21:27N 52°25' E 004°45'0 0.0
2017-Nov-06 21:00N 52°25' E 004°45'0 0.0
2017-Nov-06 20:30N 52°25' E 004°45'  

Dump ship's entire track history